Aviation Digital Data Service (ADDS)

Output produced by METARs form (0202 UTC 22 April 2019)
found at http://www.aviationweather.gov/metar/data/
 
Forecast for: EDSB (KARLSRUHE/BADEN , DE)
Text: TAF EDSB 211700Z 2118/2218 03011KT CAVOK
Forecast period: 1800 UTC 21 April 2019 to 1800 UTC 22 April 2019
Forecast type: FROM: standard forecast or significant change
Winds: from the NNE (30 degrees) at 13 MPH (11 knots; 5.7 m/s)
Visibility: 6 or more miles 10+ km)
Ceiling: unknown
Clouds: missing
Weather: NSW  (no significant weather)
Text: BECMG 2118/2120 03006KT
Forecast period: 1800 UTC 21 April 2019 to 0900 UTC 22 April 2019
Forecast type: BECOMING: Conditions expected to become as follows by 2000 UTC 21 April 2019
Winds: from the NNE (30 degrees) at 7 MPH (6 knots; 3.1 m/s)
Visibility: 6 or more miles 10+ km)
Ceiling: unknown
Clouds: missing
Weather: NSW  (no significant weather)
Text: BECMG 2209/2211 04013KT
Forecast period: 0900 to 1800 UTC 22 April 2019
Forecast type: BECOMING: Conditions expected to become as follows by 1100 UTC 22 April 2019
Winds: from the NE (40 degrees) at 15 MPH (13 knots; 6.7 m/s)
Visibility: 6 or more miles 10+ km)
Ceiling: unknown
Clouds: missing
Weather: NSW  (no significant weather)